Terminal Aerodrome Forecast
Issued by NWS Omaha/Valley, NE

Home | Current Version | Previous Version | Text Only | Print | Product List | Glossary On
Versions: 1 2 3 4 5 6 7 8 9 10 11 12 13 14 15 16 17 18
000
FTUS43 KOAX 251132
TAFLNK
TAF
KLNK 251132Z 2512/2612 17009KT P6SM SKC
     FM251700 19015G22KT P6SM SKC
     FM260100 16013KT P6SM BKN250
     FM260900 17009KT P6SM BKN100=

USA.gov is the U.S. government's official web portal to all federal, state and local government web resources and services.